Time;durP1;ratioP1;P1;durP2;ratioP2;P2;SDS_P1;SDS_P2;PMS_P1;PMS_P2;Temp;Humidity;BMP_temperature;BMP_pressure;BME280_temperature;BME280_humidity;BME280_pressure;Samples;Min_cycle;Max_cycle;Signal;HPM_P1;HPM_P2
2022/12/11 00:00:18;;;;;;;55.60;22.98;;;-0.70;99.90;;;;;;5076698;27;20055;-83
2022/12/11 00:02:44;;;;;;;62.55;24.00;;;0.70;99.90;;;;;;5115977;27;20043;-83
2022/12/11 00:05:10;;;;;;;62.00;23.50;;;-0.40;99.90;;;;;;5099127;27;20174;-83
2022/12/11 00:07:35;;;;;;;69.07;25.90;;;0.70;99.90;;;;;;5098803;27;20094;-83
2022/12/11 00:10:02;;;;;;;76.28;25.35;;;-0.60;99.90;;;;;;5098820;27;20082;-83
2022/12/11 00:12:31;;;;;;;76.68;24.60;;;-0.80;99.90;;;;;;5098985;27;20062;-83
2022/12/11 00:14:57;;;;;;;63.33;22.88;;;-2.50;99.90;;;;;;5134013;27;20112;-84
2022/12/11 00:17:23;;;;;;;69.22;24.98;;;-0.30;99.90;;;;;;5098517;27;20039;-83
2022/12/11 00:19:48;;;;;;;68.47;23.45;;;1.40;99.90;;;;;;5098975;27;20635;-83
2022/12/11 00:22:14;;;;;;;60.85;22.92;;;1.80;99.90;;;;;;5098850;27;20107;-83
2022/12/11 00:24:40;;;;;;;65.20;25.27;;;1.20;99.90;;;;;;5099219;27;20499;-83
2022/12/11 00:27:06;;;;;;;65.43;22.90;;;1.50;99.90;;;;;;5098558;27;20395;-83
2022/12/11 00:29:32;;;;;;;71.40;25.33;;;;;;;;;;5099334;27;20516;-83
2022/12/11 00:31:58;;;;;;;65.78;23.05;;;-0.70;99.90;;;;;;5099733;27;20066;-83
2022/12/11 00:34:24;;;;;;;64.05;22.35;;;1.30;99.90;;;;;;5116282;27;20043;-82
2022/12/11 00:36:50;;;;;;;56.60;20.52;;;-0.60;99.90;;;;;;5115116;27;20059;-83
2022/12/11 00:39:15;;;;;;;50.25;19.33;;;-0.20;99.90;;;;;;5092615;28;20384;-83
2022/12/11 00:41:42;;;;;;;52.67;19.50;;;;;;;;;;5077820;28;20140;-83
2022/12/11 00:44:07;;;;;;;51.35;20.05;;;-0.60;99.90;;;;;;5083453;28;20048;-83
2022/12/11 00:46:33;;;;;;;47.22;18.98;;;-0.50;99.90;;;;;;5073265;28;20462;-83
2022/12/11 00:48:59;;;;;;;52.45;19.38;;;1.30;99.90;;;;;;5097556;28;20055;-83
2022/12/11 00:51:25;;;;;;;51.78;19.33;;;1.60;99.90;;;;;;5109289;28;20040;-83
2022/12/11 00:53:51;;;;;;;51.10;19.83;;;;;;;;;;5078226;28;20104;-83
2022/12/11 00:56:19;;;;;;;50.65;19.40;;;-0.40;99.90;;;;;;5074768;28;20055;-83
2022/12/11 00:58:47;;;;;;;46.35;19.23;;;-0.20;99.90;;;;;;5074774;28;20389;-83
2022/12/11 01:01:16;;;;;;;46.63;19.48;;;1.50;99.90;;;;;;5074795;28;20107;-83
2022/12/11 01:03:41;;;;;;;48.17;19.25;;;1.30;99.90;;;;;;5088569;28;20047;-83
2022/12/11 01:06:13;;;;;;;52.40;19.33;;;-0.30;99.90;;;;;;5114469;28;20403;-83
2022/12/11 01:08:39;;;;;;;45.92;18.75;;;;;;;;;;5114949;28;20081;-83
2022/12/11 01:11:09;;;;;;;48.95;19.52;;;-0.30;99.90;;;;;;5114955;28;20070;-83
2022/12/11 01:13:35;;;;;;;44.15;18.08;;;-0.60;99.90;;;;;;5114912;28;20111;-83
2022/12/11 01:16:08;;;;;;;45.78;18.50;;;-0.30;99.90;;;;;;5132197;28;20055;-83
2022/12/11 01:18:34;;;;;;;50.47;19.35;;;;;;;;;;5097271;28;20472;-83
2022/12/11 01:21:08;;;;;;;48.25;20.02;;;-0.30;99.90;;;;;;5098036;28;20047;-83
2022/12/11 01:23:34;;;;;;;43.78;17.70;;;-0.20;99.90;;;;;;5114818;28;20495;-83
2022/12/11 01:26:13;;;;;;;48.58;19.75;;;0.70;99.90;;;;;;5115062;28;20047;-83
2022/12/11 01:28:40;;;;;;;41.53;17.77;;;-0.30;99.90;;;;;;5115388;28;20050;-83
2022/12/11 01:31:14;;;;;;;45.13;18.58;;;0.90;99.90;;;;;;5134807;28;20084;-83
2022/12/11 01:33:40;;;;;;;45.55;19.52;;;-0.20;99.90;;;;;;5098459;28;20149;-83
2022/12/11 01:36:14;;;;;;;44.72;19.23;;;-0.20;99.90;;;;;;5114598;28;20133;-83
2022/12/11 01:38:40;;;;;;;52.40;20.13;;;-0.20;99.90;;;;;;5114819;28;20062;-83
2022/12/11 01:41:08;;;;;;;53.15;19.75;;;1.00;99.90;;;;;;5081053;28;20048;-83
2022/12/11 01:43:34;;;;;;;45.50;19.50;;;-0.20;99.90;;;;;;5079295;28;20079;-83
2022/12/11 01:46:00;;;;;;;53.78;20.13;;;1.30;99.90;;;;;;5096824;28;20056;-83
2022/12/11 01:48:31;;;;;;;49.38;19.25;;;-0.10;99.90;;;;;;5061401;28;20507;-83
2022/12/11 01:51:00;;;;;;;53.97;19.50;;;1.30;99.90;;;;;;5077859;28;20059;-83
2022/12/11 01:53:38;;;;;;;45.67;17.73;;;-0.10;99.90;;;;;;5077511;28;20087;-83
2022/12/11 01:56:05;;;;;;;49.55;18.13;;;-0.10;99.90;;;;;;5099954;28;20432;-83
2022/12/11 01:58:40;;;;;;;46.90;18.35;;;-0.10;99.90;;;;;;5089648;28;20052;-83
2022/12/11 02:01:07;;;;;;;62.67;19.40;;;-0.20;99.90;;;;;;5078376;28;20044;-83
2022/12/11 02:03:33;;;;;;;52.17;18.63;;;-0.10;99.90;;;;;;5082061;28;20151;-82
2022/12/11 02:06:01;;;;;;;48.53;18.08;;;1.40;99.90;;;;;;5096886;28;20046;-82
2022/12/11 02:08:27;;;;;;;56.85;18.95;;;-0.10;99.90;;;;;;5077670;28;20043;-83
2022/12/11 02:11:07;;;;;;;51.10;19.58;;;-0.10;99.90;;;;;;5088494;28;20437;-83
2022/12/11 02:13:37;;;;;;;56.83;19.38;;;-0.10;99.90;;;;;;5103819;27;20062;-83
2022/12/11 02:16:24;;;;;;;60.20;18.92;;;-0.10;99.90;;;;;;5118621;27;20390;-83
2022/12/11 02:19:26;;;;;;;54.83;18.92;;;0.00;99.90;;;;;;5107552;28;20051;-83
2022/12/11 02:21:55;;;;;;;60.38;19.60;;;0.00;99.90;;;;;;5081019;28;20059;-83
2022/12/11 02:24:25;;;;;;;62.78;20.05;;;0.00;99.90;;;;;;5097633;28;20126;-83
2022/12/11 02:27:16;;;;;;;65.07;19.42;;;0.00;99.90;;;;;;5115333;28;20056;-83
2022/12/11 02:29:55;;;;;;;62.25;19.90;;;0.00;99.90;;;;;;5094743;28;20634;-83
2022/12/11 02:32:31;;;;;;;60.58;19.58;;;0.00;99.90;;;;;;5041704;28;20052;-83
2022/12/11 02:35:08;;;;;;;61.13;20.33;;;0.00;99.90;;;;;;5058306;28;20056;-83
2022/12/11 02:37:37;;;;;;;61.00;19.77;;;0.00;99.90;;;;;;5075139;28;20108;-83
2022/12/11 02:40:06;;;;;;;59.67;19.23;;;1.60;99.90;;;;;;5056924;28;20143;-83
2022/12/11 02:42:33;;;;;;;59.55;19.63;;;0.00;99.90;;;;;;5056962;28;20446;-82
2022/12/11 02:45:02;;;;;;;55.28;17.50;;;1.10;99.90;;;;;;5040396;28;20151;-83
2022/12/11 02:47:30;;;;;;;59.58;20.17;;;1.50;99.90;;;;;;5040273;28;20044;-83
2022/12/11 02:49:59;;;;;;;63.20;20.15;;;0.20;99.90;;;;;;5039450;28;20103;-83
2022/12/11 02:52:26;;;;;;;59.08;18.38;;;0.10;99.90;;;;;;5039078;28;20048;-83
2022/12/11 02:54:56;;;;;;;58.67;19.10;;;1.40;99.90;;;;;;5038932;28;20052;-83
2022/12/11 02:57:32;;;;;;;55.58;19.95;;;1.80;99.90;;;;;;5055951;28;20516;-83
2022/12/11 02:59:58;;;;;;;;;;;0.10;99.90;;;;;;5074699;28;20066;-83
2022/12/11 03:02:23;;;;;;;69.13;19.57;;;0.20;99.90;;;;;;5056267;28;20015;-83
2022/12/11 03:04:49;;;;;;;53.35;19.33;;;1.20;99.90;;;;;;5056719;28;20253;-83
2022/12/11 03:07:22;;;;;;;54.40;17.92;;;1.90;99.90;;;;;;5056615;28;20121;-83
2022/12/11 03:09:48;;;;;;;59.85;18.30;;;0.10;99.90;;;;;;5057491;28;20489;-83
2022/12/11 03:12:19;;;;;;;56.97;18.40;;;1.70;99.90;;;;;;5056699;28;20083;-83
2022/12/11 03:14:46;;;;;;;60.88;18.20;;;1.40;99.90;;;;;;5057334;28;20053;-83
2022/12/11 03:17:20;;;;;;;55.50;18.50;;;1.10;99.90;;;;;;5057116;28;20041;-83
2022/12/11 03:20:04;;;;;;;63.65;19.60;;;0.80;99.90;;;;;;5076748;28;20044;-83
2022/12/11 03:22:39;;;;;;;61.03;18.90;;;0.20;99.90;;;;;;5057502;28;20040;-83
2022/12/11 03:25:54;;;;;;;54.80;18.35;;;0.20;99.90;;;;;;5062322;28;20087;-83
2022/12/11 03:28:33;;;;;;;53.28;19.10;;;0.20;99.90;;;;;;5076002;28;20073;-83
2022/12/11 03:31:06;;;;;;;59.85;19.00;;;0.20;99.90;;;;;;5092683;28;20085;-83
2022/12/11 03:33:36;;;;;;;56.05;18.67;;;1.50;99.90;;;;;;5091582;28;20109;-83
2022/12/11 03:36:09;;;;;;;57.53;17.98;;;1.70;99.90;;;;;;5092270;28;20044;-83
2022/12/11 03:38:45;;;;;;;51.97;18.08;;;0.20;99.90;;;;;;5093230;28;20044;-83
2022/12/11 03:41:12;;;;;;;;;;;0.20;99.90;;;;;;5080001;28;20052;-83
2022/12/11 03:43:39;;;;;;;60.03;18.85;;;0.20;99.90;;;;;;5076408;28;19920;-83
2022/12/11 03:46:08;;;;;;;57.50;17.52;;;1.20;99.90;;;;;;5054421;28;20052;-83
2022/12/11 03:48:37;;;;;;;62.63;18.42;;;1.10;99.90;;;;;;5055422;28;20053;-83
2022/12/11 03:51:06;;;;;;;47.35;16.10;;;0.30;99.90;;;;;;5088762;28;20134;-83
2022/12/11 03:53:34;;;;;;;59.60;18.33;;;0.30;99.90;;;;;;5075064;28;20056;-83
2022/12/11 03:56:02;;;;;;;60.15;18.05;;;0.30;99.90;;;;;;5058509;28;20052;-83
2022/12/11 03:58:28;;;;;;;54.10;19.02;;;0.30;99.90;;;;;;5060307;28;20483;-82
2022/12/11 04:00:54;;;;;;;60.47;18.20;;;1.60;99.90;;;;;;5075929;28;20040;-83
2022/12/11 04:03:20;;;;;;;54.17;18.00;;;0.30;99.90;;;;;;5058705;28;20063;-83
2022/12/11 04:05:48;;;;;;;55.13;18.63;;;1.30;99.90;;;;;;5057994;28;20458;-83
2022/12/11 04:08:15;;;;;;;56.15;18.35;;;0.30;99.90;;;;;;5058253;28;20048;-83
2022/12/11 04:10:41;;;;;;;56.70;17.48;;;0.30;99.90;;;;;;5059661;28;20083;-83
2022/12/11 04:13:08;;;;;;;53.63;17.10;;;2.00;99.90;;;;;;5058864;28;20047;-83
2022/12/11 04:15:34;;;;;;;49.28;17.27;;;0.30;99.90;;;;;;5058643;28;20142;-83
2022/12/11 04:26:18;;;;;;;50.85;17.33;;;1.90;99.90;;;;;;5092711;28;20048;-83
2022/12/11 04:28:46;;;;;;;43.33;16.77;;;1.50;99.90;;;;;;5084840;28;20127;-83
2022/12/11 04:31:14;;;;;;;50.78;17.02;;;0.40;99.90;;;;;;5093423;28;20152;-83
2022/12/11 04:33:40;;;;;;;41.20;16.30;;;0.20;99.90;;;;;;5091174;28;20400;-83
2022/12/11 04:36:07;;;;;;;48.80;16.83;;;2.10;99.90;;;;;;5092004;28;20113;-83
2022/12/11 04:38:33;;;;;;;36.95;15.98;;;0.50;99.90;;;;;;5092488;28;20048;-83
2022/12/11 04:41:09;;;;;;;45.90;16.13;;;2.00;99.90;;;;;;5062800;28;20517;-83
2022/12/11 04:43:35;;;;;;;47.80;17.67;;;-1.10;99.90;;;;;;5074009;28;20515;-83
2022/12/11 04:46:15;;;;;;;48.10;16.90;;;2.00;99.90;;;;;;5073575;28;20078;-83
2022/12/11 04:48:41;;;;;;;44.20;16.52;;;0.40;99.90;;;;;;5072532;28;20052;-83
2022/12/11 04:51:07;;;;;;;41.33;15.98;;;0.50;99.90;;;;;;5089442;28;20151;-83
2022/12/11 04:53:34;;;;;;;36.63;14.45;;;0.50;99.90;;;;;;5074538;28;20265;-83
2022/12/11 04:56:03;;;;;;;38.80;15.00;;;0.90;99.90;;;;;;5073878;28;20055;-83
2022/12/11 04:58:29;;;;;;;47.83;16.75;;;0.60;99.90;;;;;;5091463;28;20051;-83
2022/12/11 05:00:55;;;;;;;42.83;15.50;;;0.60;99.90;;;;;;5091918;28;20424;-83
2022/12/11 05:03:20;;;;;;;39.10;15.25;;;2.00;99.90;;;;;;5094540;28;20043;-83
2022/12/11 05:05:51;;;;;;;40.55;16.02;;;0.70;99.90;;;;;;5093452;28;20060;-83
2022/12/11 05:08:18;;;;;;;43.38;16.63;;;0.70;99.90;;;;;;5092735;28;20399;-83
2022/12/11 05:10:44;;;;;;;45.08;16.42;;;-0.70;99.90;;;;;;5074408;28;20052;-83
2022/12/11 05:13:10;;;;;;;44.63;16.95;;;0.80;99.90;;;;;;5090906;28;20564;-83
2022/12/11 05:15:39;;;;;;;45.47;16.38;;;2.30;99.90;;;;;;5092993;28;20135;-83
2022/12/11 05:18:05;;;;;;;44.10;15.88;;;2.30;99.90;;;;;;5079251;28;20048;-83
2022/12/11 05:20:31;;;;;;;41.13;15.68;;;2.60;99.90;;;;;;5096056;28;20044;-83
2022/12/11 05:22:56;;;;;;;38.67;16.40;;;0.90;99.90;;;;;;5061759;28;20488;-83
2022/12/11 05:25:22;;;;;;;40.55;16.48;;;;;;;;;;5095531;28;20135;-83
2022/12/11 05:27:48;;;;;;;42.60;16.35;;;0.70;99.90;;;;;;5081132;28;20048;-83
2022/12/11 05:30:14;;;;;;;42.90;17.13;;;1.20;99.90;;;;;;5098620;28;20075;-83
2022/12/11 05:32:39;;;;;;;49.53;18.08;;;1.60;99.90;;;;;;5081030;28;20048;-83
2022/12/11 05:35:05;;;;;;;45.65;17.00;;;2.00;99.90;;;;;;5078795;28;20048;-83
2022/12/11 05:37:33;;;;;;;42.55;17.55;;;0.70;99.90;;;;;;5061576;28;20043;-83
2022/12/11 05:39:59;;;;;;;45.15;16.10;;;2.10;99.90;;;;;;5061034;28;20056;-83
2022/12/11 05:42:24;;;;;;;41.85;15.52;;;0.70;99.90;;;;;;5061130;28;20052;-83
2022/12/11 05:44:50;;;;;;;47.30;16.23;;;1.60;99.90;;;;;;5078220;28;20040;-84
2022/12/11 05:47:19;;;;;;;45.05;16.63;;;2.90;99.90;;;;;;5074944;28;20385;-84
2022/12/11 05:49:46;;;;;;;42.63;15.73;;;0.80;99.90;;;;;;5082952;28;20052;-84
2022/12/11 05:52:11;;;;;;;43.55;16.58;;;1.80;99.90;;;;;;5077779;28;20048;-83
2022/12/11 05:54:37;;;;;;;45.20;16.08;;;2.50;99.90;;;;;;5060945;28;20620;-84
2022/12/11 05:57:03;;;;;;;47.88;17.55;;;0.70;99.90;;;;;;5077724;28;20430;-83
2022/12/11 05:59:29;;;;;;;43.72;17.63;;;;;;;;;;5061722;28;20489;-82
2022/12/11 06:01:55;;;;;;;43.45;16.73;;;0.70;99.90;;;;;;5077899;28;20051;-83
2022/12/11 06:04:20;;;;;;;41.10;16.23;;;0.90;99.90;;;;;;5116659;28;20133;-83
2022/12/11 06:06:47;;;;;;;44.60;17.10;;;;;;;;;;5080758;28;20047;-84
2022/12/11 06:09:15;;;;;;;42.72;16.70;;;0.70;99.90;;;;;;5097493;28;20047;-84
2022/12/11 06:11:41;;;;;;;39.90;14.70;;;2.20;99.90;;;;;;5081012;28;20052;-84
2022/12/11 06:14:09;;;;;;;38.17;15.13;;;0.70;99.90;;;;;;5080694;28;20047;-84
2022/12/11 06:16:35;;;;;;;41.65;16.52;;;0.70;99.90;;;;;;5093211;27;20048;-83
2022/12/11 06:19:00;;;;;;;38.30;16.20;;;0.70;99.90;;;;;;5118058;27;20058;-84
2022/12/11 06:21:30;;;;;;;36.28;14.88;;;0.70;99.90;;;;;;5135549;27;20047;-83
2022/12/11 06:23:59;;;;;;;41.85;16.52;;;0.80;99.90;;;;;;5102110;27;20051;-83
2022/12/11 06:26:25;;;;;;;38.58;14.80;;;1.50;99.90;;;;;;5135749;27;20488;-82
2022/12/11 06:28:51;;;;;;;35.58;15.18;;;2.10;99.90;;;;;;5116856;27;20047;-83
2022/12/11 06:31:18;;;;;;;38.28;15.13;;;2.00;99.90;;;;;;5092444;28;20050;-85
2022/12/11 06:33:43;;;;;;;44.03;15.98;;;2.00;99.90;;;;;;5096762;28;20177;-82
2022/12/11 06:36:12;;;;;;;44.28;16.58;;;0.70;99.90;;;;;;5079618;28;20134;-83
2022/12/11 06:38:38;;;;;;;37.90;14.68;;;0.70;99.90;;;;;;5096995;28;20407;-82
2022/12/11 06:41:05;;;;;;;41.63;15.32;;;2.40;99.90;;;;;;5080289;28;20072;-85
2022/12/11 06:43:32;;;;;;;34.60;14.02;;;0.80;99.90;;;;;;5094178;27;20076;-84
2022/12/11 06:45:58;;;;;;;41.22;15.15;;;0.80;99.90;;;;;;5115833;27;20055;-84
2022/12/11 06:48:24;;;;;;;46.15;16.60;;;0.80;99.90;;;;;;5116067;27;20130;-84
2022/12/11 06:50:49;;;;;;;38.22;15.50;;;0.80;99.90;;;;;;5118563;27;20047;-85
2022/12/11 06:53:15;;;;;;;38.88;15.07;;;2.40;99.90;;;;;;5097977;28;20381;-83
2022/12/11 06:55:41;;;;;;;41.42;15.05;;;2.50;99.90;;;;;;5114168;28;20044;-85
2022/12/11 06:58:08;;;;;;;41.38;15.63;;;1.80;99.90;;;;;;5099840;27;20051;-85
2022/12/11 07:00:34;;;;;;;37.00;14.88;;;0.70;99.90;;;;;;5135501;27;20047;-85
2022/12/11 07:03:00;;;;;;;43.65;16.30;;;2.80;99.90;;;;;;5100626;27;20043;-84
2022/12/11 07:05:26;;;;;;;39.35;14.73;;;2.80;99.90;;;;;;5100132;27;20047;-84
2022/12/11 07:07:54;;;;;;;39.45;14.27;;;0.90;99.90;;;;;;5135306;27;20451;-85
2022/12/11 07:10:21;;;;;;;39.33;14.60;;;0.90;99.90;;;;;;5099818;27;20047;-83
2022/12/11 07:12:46;;;;;;;41.88;16.08;;;2.40;99.90;;;;;;5116015;27;20059;-86
2022/12/11 07:15:12;;;;;;;38.35;16.33;;;1.90;99.90;;;;;;5099782;27;20055;-83
2022/12/11 07:17:38;;;;;;;43.10;16.10;;;0.90;99.90;;;;;;5097472;28;20126;-83
2022/12/11 07:20:04;;;;;;;42.47;15.85;;;2.10;99.90;;;;;;5092976;28;20066;-83
2022/12/11 07:22:30;;;;;;;42.90;15.90;;;0.80;99.90;;;;;;5094819;27;20048;-83
2022/12/11 07:24:56;;;;;;;42.05;15.80;;;0.80;99.90;;;;;;5114785;28;20055;-84
2022/12/11 07:27:22;;;;;;;39.35;14.98;;;0.80;99.90;;;;;;5097457;28;20043;-84
2022/12/11 07:29:49;;;;;;;45.50;16.30;;;1.80;99.90;;;;;;5097467;28;20143;-83
2022/12/11 07:32:15;;;;;;;40.90;15.10;;;0.90;99.90;;;;;;5129568;27;20051;-84
2022/12/11 07:34:41;;;;;;;46.17;16.08;;;0.80;99.90;;;;;;5101793;28;20051;-83
2022/12/11 07:37:06;;;;;;;40.63;15.35;;;0.80;99.90;;;;;;5112758;28;20535;-83
2022/12/11 07:39:33;;;;;;;39.72;15.85;;;1.90;99.90;;;;;;5107244;28;20040;-83
2022/12/11 07:41:58;;;;;;;45.97;16.77;;;1.30;99.90;;;;;;5096136;28;20059;-83
2022/12/11 07:44:24;;;;;;;38.67;15.60;;;0.80;99.90;;;;;;5097465;28;20122;-83
2022/12/11 07:46:50;;;;;;;40.42;14.20;;;0.80;99.90;;;;;;5079755;28;20043;-84
2022/12/11 07:49:15;;;;;;;45.47;16.45;;;0.80;99.90;;;;;;5079480;28;20090;-83
2022/12/11 07:51:42;;;;;;;38.65;13.45;;;0.80;99.90;;;;;;5083363;28;20048;-83
2022/12/11 07:54:15;;;;;;;41.85;15.57;;;0.90;99.90;;;;;;5062408;28;20059;-83
2022/12/11 07:56:45;;;;;;;40.78;15.10;;;2.40;99.90;;;;;;5074973;28;20048;-83
2022/12/11 07:59:11;;;;;;;42.28;15.18;;;0.90;99.90;;;;;;5075669;28;20055;-83
2022/12/11 08:01:38;;;;;;;39.38;14.50;;;2.20;99.90;;;;;;5126484;27;20055;-83
2022/12/11 08:04:06;;;;;;;41.63;15.88;;;0.90;99.90;;;;;;5097235;28;20044;-83
2022/12/11 08:06:36;;;;;;;41.58;15.38;;;2.10;99.90;;;;;;5085206;28;20039;-83
2022/12/11 08:09:11;;;;;;;37.08;15.10;;;0.80;99.90;;;;;;5095570;28;20168;-83
2022/12/11 08:11:37;;;;;;;42.28;15.15;;;0.90;99.90;;;;;;5095902;28;20047;-83
2022/12/11 08:14:05;;;;;;;43.88;16.95;;;2.30;99.90;;;;;;5113778;28;20052;-84
2022/12/11 08:16:31;;;;;;;44.22;16.02;;;0.90;99.90;;;;;;5096010;28;20128;-83
2022/12/11 08:18:57;;;;;;;42.13;15.20;;;0.90;99.90;;;;;;5095536;27;20048;-83
2022/12/11 08:21:25;;;;;;;40.42;16.58;;;2.20;99.90;;;;;;5098513;28;20050;-83
2022/12/11 08:23:51;;;;;;;43.03;15.80;;;0.90;99.90;;;;;;5111339;28;20075;-83
2022/12/11 08:26:23;;;;;;;39.45;16.15;;;0.90;99.90;;;;;;5073252;28;20052;-83
2022/12/11 08:28:49;;;;;;;45.47;16.58;;;1.70;99.90;;;;;;5074368;28;20104;-83
2022/12/11 08:31:16;;;;;;;42.75;15.27;;;1.40;99.90;;;;;;5075501;28;20488;-83
2022/12/11 08:33:43;;;;;;;39.75;15.25;;;0.90;99.90;;;;;;5058217;28;20381;-83
2022/12/11 08:36:12;;;;;;;42.72;16.75;;;0.90;99.90;;;;;;5074547;28;20044;-83
2022/12/11 08:38:39;;;;;;;45.35;16.48;;;0.90;99.90;;;;;;5079175;28;20051;-83
2022/12/11 08:41:16;;;;;;;42.88;16.75;;;0.90;99.90;;;;;;5081228;28;20069;-83
2022/12/11 08:43:43;;;;;;;43.63;16.58;;;0.90;99.90;;;;;;5057985;28;20134;-84
2022/12/11 08:46:09;;;;;;;44.00;16.55;;;0.90;99.90;;;;;;5058161;28;20047;-83
2022/12/11 08:48:37;;;;;;;46.75;16.90;;;0.90;99.90;;;;;;5094793;28;20484;-84
2022/12/11 08:51:05;;;;;;;45.08;16.20;;;2.10;99.90;;;;;;5072143;28;20454;-83
2022/12/11 08:53:31;;;;;;;44.85;14.88;;;0.90;99.90;;;;;;5092986;28;20146;-84
2022/12/11 08:56:08;;;;;;;46.63;15.98;;;0.90;99.90;;;;;;5072434;28;20043;-85
2022/12/11 08:58:34;;;;;;;41.58;16.63;;;0.90;99.90;;;;;;5088834;28;20059;-84
2022/12/11 09:01:05;;;;;;;45.97;17.52;;;1.00;99.90;;;;;;5090633;28;20052;-84
2022/12/11 09:03:31;;;;;;;47.80;17.65;;;1.00;99.90;;;;;;5074647;28;20454;-84
2022/12/11 09:05:56;;;;;;;47.00;16.50;;;0.90;99.90;;;;;;5092932;28;20080;-84
2022/12/11 09:08:22;;;;;;;46.75;17.27;;;1.20;99.90;;;;;;5074694;28;20118;-84
2022/12/11 09:10:48;;;;;;;39.08;15.73;;;2.10;99.90;;;;;;5074954;28;20083;-83
2022/12/11 09:13:13;;;;;;;41.92;16.17;;;1.00;99.90;;;;;;5088882;28;20192;-83
2022/12/11 09:15:40;;;;;;;46.67;17.80;;;1.00;99.90;;;;;;5108008;28;20056;-83
2022/12/11 09:18:06;;;;;;;48.50;17.50;;;1.00;99.90;;;;;;5074328;28;20059;-83
2022/12/11 09:20:32;;;;;;;47.70;17.90;;;2.50;99.90;;;;;;5108291;28;20064;-83
2022/12/11 09:22:58;;;;;;;45.55;17.00;;;1.00;99.90;;;;;;5080328;28;20051;-83
2022/12/11 09:25:24;;;;;;;48.15;17.73;;;1.20;99.90;;;;;;5097739;28;20052;-86
2022/12/11 09:27:49;;;;;;;50.25;17.88;;;1.00;99.90;;;;;;5094474;28;20526;-85
2022/12/11 09:30:15;;;;;;;45.58;18.73;;;1.70;99.90;;;;;;5077501;28;20119;-84
2022/12/11 09:32:41;;;;;;;46.03;18.13;;;2.70;99.90;;;;;;5094689;28;20400;-82
2022/12/11 09:35:07;;;;;;;44.78;17.48;;;2.60;99.90;;;;;;5115529;28;20063;-83
2022/12/11 09:37:33;;;;;;;47.13;17.10;;;1.00;99.90;;;;;;5094165;28;20138;-83
2022/12/11 09:39:59;;;;;;;45.70;17.20;;;0.90;99.90;;;;;;5073983;28;20144;-82
2022/12/11 09:42:56;;;;;;;44.75;16.38;;;2.30;99.90;;;;;;5107527;28;20036;-85
2022/12/11 09:45:22;;;;;;;51.67;18.42;;;0.90;99.90;;;;;;5053706;28;20515;-83
2022/12/11 09:47:53;;;;;;;53.83;19.02;;;0.90;99.90;;;;;;5106896;28;20055;-82
2022/12/11 09:50:24;;;;;;;47.90;17.90;;;0.90;99.90;;;;;;5096928;28;20043;-83
2022/12/11 09:52:49;;;;;;;50.88;18.48;;;1.00;99.90;;;;;;5077664;28;20051;-84
2022/12/11 09:55:24;;;;;;;52.55;18.42;;;2.60;99.90;;;;;;5098512;28;20145;-83
2022/12/11 09:58:02;;;;;;;45.97;17.17;;;1.10;99.90;;;;;;5107261;28;20043;-82
2022/12/11 10:00:42;;;;;;;44.35;17.15;;;1.10;99.90;;;;;;5092644;28;20438;-82
2022/12/11 10:03:47;;;;;;;46.20;16.85;;;1.20;99.90;;;;;;5080589;27;20087;-82
2022/12/11 10:06:31;;;;;;;45.42;17.55;;;2.90;99.90;;;;;;5072959;27;20043;-80
2022/12/11 10:09:20;;;;;;;54.60;18.05;;;1.20;99.90;;;;;;5096050;28;20051;-84
2022/12/11 10:11:54;;;;;;;48.30;18.45;;;2.40;99.90;;;;;;5128146;27;20047;-82
2022/12/11 10:14:31;;;;;;;49.05;18.02;;;1.20;99.90;;;;;;5102011;27;20416;-83
2022/12/11 10:17:17;;;;;;;49.72;18.80;;;1.20;99.90;;;;;;5094256;28;20538;-83
2022/12/11 10:19:47;;;;;;;44.10;17.05;;;1.20;99.90;;;;;;5098100;28;20052;-85
2022/12/11 10:22:26;;;;;;;50.20;18.73;;;2.90;99.90;;;;;;5097131;27;20478;-78
2022/12/11 10:24:57;;;;;;;47.35;17.50;;;-0.40;99.90;;;;;;5115073;27;20046;-84
2022/12/11 10:27:30;;;;;;;47.88;17.95;;;2.20;99.90;;;;;;5077694;28;20044;-83
2022/12/11 10:30:01;;;;;;;47.15;17.50;;;1.20;99.90;;;;;;5058416;28;20077;-83
2022/12/11 10:32:46;;;;;;;43.83;18.75;;;1.30;99.90;;;;;;5076874;28;20357;-83
2022/12/11 10:35:35;;;;;;;45.55;16.30;;;2.20;99.90;;;;;;5106692;28;20061;-83
2022/12/11 10:38:20;;;;;;;51.53;18.75;;;1.30;99.90;;;;;;5094874;28;20050;-83
2022/12/11 10:40:53;;;;;;;46.47;18.00;;;1.30;99.90;;;;;;5074984;28;20155;-83
2022/12/11 10:43:19;;;;;;;47.53;17.40;;;1.30;99.90;;;;;;5059471;28;20126;-83
2022/12/11 10:45:54;;;;;;;47.83;18.00;;;2.40;99.90;;;;;;5100647;27;20058;-83
2022/12/11 10:48:21;;;;;;;47.17;18.10;;;2.10;99.90;;;;;;5106534;27;20044;-83
2022/12/11 10:51:03;;;;;;;48.17;18.25;;;2.20;99.90;;;;;;5098630;27;20145;-84
2022/12/11 10:53:30;;;;;;;48.42;19.13;;;1.30;99.90;;;;;;5100556;27;20050;-84
2022/12/11 10:55:59;;;;;;;47.75;18.40;;;1.30;99.90;;;;;;5116910;27;20108;-84
2022/12/11 10:58:32;;;;;;;52.00;18.75;;;1.30;99.90;;;;;;5103253;28;20144;-83
2022/12/11 11:01:14;;;;;;;51.00;18.10;;;2.70;99.90;;;;;;5104506;27;20040;-81
2022/12/11 11:04:12;;;;;;;49.80;18.23;;;1.30;99.90;;;;;;5079472;28;20101;-82
2022/12/11 11:06:38;;;;;;;47.03;18.40;;;1.30;99.90;;;;;;5078205;28;20055;-81
2022/12/11 11:09:35;;;;;;;56.55;19.77;;;2.20;99.90;;;;;;5114044;27;20487;-80
2022/12/11 11:12:01;;;;;;;51.80;19.75;;;1.30;99.90;;;;;;5113088;28;20112;-84
2022/12/11 11:14:28;;;;;;;53.22;18.80;;;1.30;99.90;;;;;;5094583;28;20039;-83
2022/12/11 11:16:56;;;;;;;49.75;19.08;;;1.30;99.90;;;;;;5095328;28;20046;-83
2022/12/11 11:19:30;;;;;;;50.38;19.25;;;1.90;99.90;;;;;;5079080;28;20396;-83
2022/12/11 11:22:00;;;;;;;53.17;19.25;;;2.80;99.90;;;;;;5093904;28;20351;-84
2022/12/11 11:24:28;;;;;;;49.25;19.25;;;1.30;99.90;;;;;;5128271;27;20035;-91
2022/12/11 11:26:54;;;;;;;53.42;18.23;;;3.00;99.90;;;;;;5103146;28;20097;-83
2022/12/11 11:29:32;;;;;;;49.28;19.38;;;1.40;99.90;;;;;;5095704;28;20407;-84
2022/12/11 11:32:15;;;;;;;50.55;19.35;;;2.50;99.90;;;;;;5095534;28;20125;-83
2022/12/11 11:34:40;;;;;;;47.88;17.70;;;1.40;99.90;;;;;;5099397;28;20062;-82
2022/12/11 11:37:31;;;;;;;49.10;19.13;;;1.90;99.90;;;;;;5095028;28;20466;-81
2022/12/11 11:40:12;;;;;;;48.13;18.55;;;1.50;99.90;;;;;;5100711;28;20403;-82
2022/12/11 11:42:42;;;;;;;50.25;19.90;;;1.40;99.90;;;;;;5087902;27;20466;-83
2022/12/11 11:45:34;;;;;;;49.35;19.67;;;2.80;99.90;;;;;;5115870;27;20507;-83
2022/12/11 11:48:09;;;;;;;46.47;18.38;;;2.40;99.90;;;;;;5093036;28;20055;-84
2022/12/11 11:50:35;;;;;;;50.88;20.15;;;1.40;99.90;;;;;;5076603;28;20054;-84
2022/12/11 11:53:10;;;;;;;47.67;19.35;;;2.70;99.90;;;;;;5103600;27;20116;-84
2022/12/11 11:56:14;;;;;;;48.88;19.83;;;2.50;99.90;;;;;;5095261;28;20059;-84
2022/12/11 11:58:43;;;;;;;46.65;19.33;;;-0.10;99.90;;;;;;5092146;28;20081;-83
2022/12/11 12:01:16;;;;;;;48.67;18.98;;;2.20;99.90;;;;;;5095181;28;20368;-84
2022/12/11 12:03:44;;;;;;;50.08;19.52;;;1.40;99.90;;;;;;5095724;28;20047;-85
2022/12/11 12:06:26;;;;;;;50.97;20.65;;;2.80;99.90;;;;;;5079537;28;20055;-84
2022/12/11 12:09:07;;;;;;;50.78;19.55;;;1.50;99.90;;;;;;5078327;28;20044;-85
2022/12/11 12:11:40;;;;;;;49.65;19.80;;;1.50;99.90;;;;;;5078979;28;20048;-84
2022/12/11 12:14:12;;;;;;;44.85;18.65;;;2.90;99.90;;;;;;5077906;28;20519;-85
2022/12/11 12:16:56;;;;;;;48.28;19.83;;;1.50;99.90;;;;;;5095005;28;20488;-84
2022/12/11 12:19:51;;;;;;;46.72;19.40;;;1.50;99.90;;;;;;5113876;28;20115;-84
2022/12/11 12:22:35;;;;;;;42.50;17.17;;;1.50;99.90;;;;;;5094871;28;20047;-84
2022/12/11 12:25:17;;;;;;;43.80;18.02;;;1.50;99.90;;;;;;5095047;28;20083;-84
2022/12/11 12:28:14;;;;;;;47.13;18.88;;;1.50;99.90;;;;;;5094996;28;20154;-84
2022/12/11 12:31:24;;;;;;;49.25;19.73;;;1.60;99.90;;;;;;5094878;28;20052;-84
2022/12/11 12:34:08;;;;;;;50.30;20.02;;;1.50;99.90;;;;;;4997604;28;20057;-85
2022/12/11 12:36:37;;;;;;;47.72;18.50;;;1.60;99.90;;;;;;5093952;28;20054;-84
2022/12/11 12:39:32;;;;;;;55.65;20.13;;;1.60;99.90;;;;;;5095005;28;20043;-84
2022/12/11 12:42:21;;;;;;;43.95;18.70;;;1.60;99.90;;;;;;5072815;28;20442;-84
2022/12/11 12:44:58;;;;;;;43.55;17.85;;;1.60;99.90;;;;;;5090052;28;20048;-84
2022/12/11 12:47:29;;;;;;;46.35;19.20;;;2.50;99.90;;;;;;5074284;28;20141;-84
2022/12/11 12:49:57;;;;;;;47.28;20.42;;;2.10;99.90;;;;;;5074582;28;20108;-85
2022/12/11 12:52:44;;;;;;;51.72;19.33;;;2.60;99.90;;;;;;5074694;28;20373;-85
2022/12/11 12:55:12;;;;;;;;;;;1.60;99.90;;;;;;5057853;28;20052;-85
2022/12/11 12:57:43;;;;;;;50.40;18.80;;;1.60;99.90;;;;;;5058132;28;19954;-84
2022/12/11 13:00:11;;;;;;;50.90;18.95;;;2.80;99.90;;;;;;5078444;28;20596;-85
2022/12/11 13:02:58;;;;;;;47.53;18.85;;;1.60;99.90;;;;;;5095268;28;20052;-84